createdAt,value
2018-07-31T00:01:58.716Z,11.37
2018-07-31T00:04:27.306Z,7.53
2018-07-31T00:06:56.729Z,5.80
2018-07-31T00:09:26.008Z,4.70
2018-07-31T00:11:55.253Z,4.57
2018-07-31T00:14:24.311Z,4.40
2018-07-31T00:16:53.755Z,4.33
2018-07-31T00:19:22.919Z,4.07
2018-07-31T00:21:51.907Z,4.30
2018-07-31T00:24:21.114Z,4.73
2018-07-31T00:26:49.628Z,4.17
2018-07-31T00:29:18.151Z,4.50
2018-07-31T00:31:46.707Z,4.40
2018-07-31T00:34:15.235Z,4.63
2018-07-31T00:36:43.804Z,4.27
2018-07-31T00:39:12.746Z,4.10
2018-07-31T00:41:41.836Z,4.20
2018-07-31T00:44:10.511Z,4.53
2018-07-31T00:46:39.025Z,4.27
2018-07-31T00:49:08.287Z,4.47
2018-07-31T00:51:37.300Z,4.20
2018-07-31T00:54:06.566Z,4.00
2018-07-31T00:56:35.967Z,4.57
2018-07-31T00:59:05.007Z,4.33
2018-07-31T01:01:34.190Z,4.30
2018-07-31T01:04:03.458Z,4.07
2018-07-31T01:06:37.817Z,4.47
2018-07-31T01:09:08.524Z,3.90
2018-07-31T01:11:37.046Z,4.23
2018-07-31T01:14:07.159Z,3.80
2018-07-31T01:16:37.398Z,4.00
2018-07-31T01:19:06.672Z,4.47
2018-07-31T01:21:35.916Z,4.03
2018-07-31T01:24:05.144Z,3.30
2018-07-31T01:26:34.345Z,3.77
2018-07-31T01:29:03.587Z,3.93
2018-07-31T01:31:32.763Z,3.90
2018-07-31T01:34:02.028Z,3.40
2018-07-31T01:36:31.243Z,3.97
2018-07-31T01:39:00.454Z,4.07
2018-07-31T01:41:29.511Z,3.73
2018-07-31T01:43:58.503Z,3.93
2018-07-31T01:46:27.730Z,3.60
2018-07-31T01:48:56.982Z,4.00
2018-07-31T01:51:26.237Z,3.33
2018-07-31T01:53:55.241Z,3.60
2018-07-31T01:56:24.483Z,3.70
2018-07-31T01:58:53.715Z,3.90
2018-07-31T02:01:22.937Z,3.87
2018-07-31T02:03:52.126Z,3.77
2018-07-31T02:06:25.666Z,3.97
2018-07-31T02:08:54.879Z,4.03
2018-07-31T02:11:24.139Z,4.17
2018-07-31T02:13:54.136Z,4.20
2018-07-31T02:16:23.861Z,3.70
2018-07-31T02:18:52.973Z,3.70
2018-07-31T02:21:22.415Z,3.60
2018-07-31T02:23:51.663Z,3.57
2018-07-31T02:26:21.044Z,4.03
2018-07-31T02:28:50.627Z,3.97
2018-07-31T02:31:19.741Z,3.53
2018-07-31T02:33:48.945Z,3.50
2018-07-31T02:36:18.187Z,4.40
2018-07-31T02:38:47.420Z,3.73
2018-07-31T02:41:16.603Z,4.07
2018-07-31T02:43:45.872Z,3.93
2018-07-31T02:46:15.256Z,3.93
2018-07-31T02:48:44.541Z,3.90
2018-07-31T02:51:13.739Z,3.83
2018-07-31T02:53:42.736Z,4.40
2018-07-31T02:56:11.746Z,3.30
2018-07-31T02:58:41.040Z,4.10
2018-07-31T03:01:10.245Z,3.70
2018-07-31T03:03:39.488Z,4.30
2018-07-31T03:06:08.860Z,3.97
2018-07-31T03:08:38.115Z,4.17
2018-07-31T03:11:07.137Z,4.13
2018-07-31T03:13:36.127Z,3.83
2018-07-31T03:16:05.408Z,4.20
2018-07-31T03:18:34.663Z,4.03
2018-07-31T03:21:03.844Z,3.97
2018-07-31T03:23:33.237Z,3.87
2018-07-31T03:26:02.512Z,4.10
2018-07-31T03:28:32.085Z,4.07
2018-07-31T03:31:00.678Z,4.33
2018-07-31T03:33:29.592Z,4.30
2018-07-31T03:35:58.586Z,3.87
2018-07-31T03:38:27.833Z,3.77
2018-07-31T03:40:57.064Z,4.37
2018-07-31T03:43:26.300Z,4.20
2018-07-31T03:45:55.271Z,5.27
2018-07-31T03:48:24.535Z,5.33
2018-07-31T03:50:53.810Z,5.10
2018-07-31T03:53:22.987Z,6.10
2018-07-31T03:55:51.995Z,6.10
2018-07-31T03:58:21.022Z,6.40
2018-07-31T04:00:50.285Z,6.57
2018-07-31T04:03:19.504Z,5.37
2018-07-31T04:05:48.739Z,5.50
2018-07-31T04:08:17.973Z,4.50
2018-07-31T04:10:47.151Z,4.60
2018-07-31T04:13:16.404Z,4.63
2018-07-31T04:15:45.632Z,4.93
2018-07-31T04:18:14.827Z,4.37
2018-07-31T04:20:44.105Z,3.97
2018-07-31T04:23:13.364Z,3.90
2018-07-31T04:25:42.546Z,4.87
2018-07-31T04:28:11.543Z,4.50
2018-07-31T04:30:40.909Z,3.87
2018-07-31T04:33:10.201Z,3.93
2018-07-31T04:35:39.219Z,4.37
2018-07-31T04:38:08.488Z,3.80
2018-07-31T04:40:37.712Z,3.93
2018-07-31T04:43:06.952Z,3.93
2018-07-31T04:45:35.912Z,3.83
2018-07-31T04:48:04.956Z,3.70
2018-07-31T04:50:34.202Z,4.20
2018-07-31T04:53:06.596Z,3.60
2018-07-31T04:55:35.741Z,4.00
2018-07-31T04:58:05.042Z,4.47
2018-07-31T05:00:34.257Z,4.30
2018-07-31T05:03:03.503Z,4.20
2018-07-31T05:05:32.704Z,4.10
2018-07-31T05:08:01.985Z,4.00
2018-07-31T05:10:31.757Z,3.77
2018-07-31T05:13:01.192Z,3.97
2018-07-31T05:15:30.785Z,3.83
2018-07-31T05:17:59.839Z,3.90
2018-07-31T05:20:28.827Z,3.73
2018-07-31T05:22:57.883Z,3.70
2018-07-31T05:25:27.106Z,3.83
2018-07-31T05:27:56.396Z,3.83
2018-07-31T05:30:25.560Z,4.03
2018-07-31T05:32:54.938Z,3.83
2018-07-31T05:35:24.214Z,4.30
2018-07-31T05:37:53.461Z,3.93
2018-07-31T05:40:22.230Z,3.77
2018-07-31T05:42:51.480Z,3.73
2018-07-31T05:45:20.708Z,3.73
2018-07-31T05:47:49.717Z,3.47
2018-07-31T05:50:18.736Z,4.03
2018-07-31T05:52:48.002Z,3.73
2018-07-31T05:55:17.215Z,3.57
2018-07-31T05:57:46.470Z,3.20
2018-07-31T06:00:15.543Z,3.27
2018-07-31T06:02:44.913Z,3.37
2018-07-31T06:05:14.117Z,3.10
2018-07-31T06:07:43.117Z,2.37
2018-07-31T06:10:12.412Z,2.90
2018-07-31T06:12:41.608Z,3.13
2018-07-31T06:15:10.719Z,3.00
2018-07-31T06:17:39.880Z,2.97
2018-07-31T06:20:12.053Z,2.70
2018-07-31T06:22:41.268Z,3.27
2018-07-31T06:25:10.522Z,2.77
2018-07-31T06:27:39.685Z,2.70
2018-07-31T06:30:10.587Z,2.47
2018-07-31T06:32:39.868Z,3.17
2018-07-31T06:35:09.155Z,2.60
2018-07-31T06:37:38.427Z,2.33
2018-07-31T06:40:08.224Z,2.90
2018-07-31T06:42:37.454Z,2.77
2018-07-31T06:45:06.746Z,2.50
2018-07-31T06:47:35.807Z,2.77
2018-07-31T06:50:04.912Z,2.30
2018-07-31T06:52:34.143Z,2.37
2018-07-31T06:55:03.208Z,2.40
2018-07-31T06:57:31.748Z,2.30
2018-07-31T07:00:00.241Z,2.70
2018-07-31T07:02:29.488Z,2.77
2018-07-31T07:04:59.119Z,2.37
2018-07-31T07:07:28.332Z,2.57
2018-07-31T07:09:57.533Z,2.57
2018-07-31T07:12:26.780Z,2.40
2018-07-31T07:14:55.954Z,2.80
2018-07-31T07:17:25.208Z,2.30
2018-07-31T07:19:54.432Z,2.67
2018-07-31T07:22:23.667Z,2.40
2018-07-31T07:24:53.215Z,2.40
2018-07-31T07:27:22.501Z,2.37
2018-07-31T07:29:51.745Z,2.43
2018-07-31T07:32:20.730Z,2.60
2018-07-31T07:34:49.779Z,2.30
2018-07-31T07:37:19.352Z,2.80
2018-07-31T07:39:48.617Z,2.97
2018-07-31T07:42:17.867Z,2.30
2018-07-31T07:44:47.096Z,3.13
2018-07-31T07:47:16.348Z,3.30
2018-07-31T07:49:45.326Z,3.03
2018-07-31T07:52:14.371Z,2.70
2018-07-31T07:54:43.625Z,2.80
2018-07-31T07:57:12.828Z,2.70
2018-07-31T07:59:42.063Z,3.00
2018-07-31T08:02:11.055Z,2.67
2018-07-31T08:04:40.332Z,2.83
2018-07-31T08:07:09.543Z,2.60
2018-07-31T08:09:38.511Z,2.70
2018-07-31T08:12:07.611Z,2.60
2018-07-31T08:14:36.580Z,2.60
2018-07-31T08:17:05.853Z,2.60
2018-07-31T08:19:35.084Z,2.83
2018-07-31T08:22:04.132Z,2.80
2018-07-31T08:24:33.099Z,2.60
2018-07-31T08:27:02.132Z,2.40
2018-07-31T08:29:31.376Z,2.37
2018-07-31T08:32:00.625Z,2.37
2018-07-31T08:34:29.878Z,2.73
2018-07-31T08:36:58.861Z,2.60
2018-07-31T08:39:27.875Z,2.43
2018-07-31T08:41:57.372Z,2.60
2018-07-31T08:44:26.544Z,2.10
2018-07-31T08:46:55.577Z,2.23
2018-07-31T08:49:24.584Z,2.17
2018-07-31T08:51:53.825Z,2.43
2018-07-31T08:54:22.837Z,2.30
2018-07-31T08:56:51.673Z,2.20
2018-07-31T08:59:20.220Z,2.30
2018-07-31T09:01:48.897Z,2.30
2018-07-31T09:04:17.767Z,2.50
2018-07-31T09:06:46.351Z,2.37
2018-07-31T09:09:14.878Z,3.23
2018-07-31T09:11:43.411Z,2.73
2018-07-31T09:14:12.548Z,2.70
2018-07-31T09:16:41.070Z,2.73
2018-07-31T09:19:09.594Z,2.60
2018-07-31T09:21:38.099Z,2.70
2018-07-31T09:24:06.610Z,2.80
2018-07-31T09:26:35.135Z,2.60
2018-07-31T09:29:03.690Z,2.50
2018-07-31T09:31:32.209Z,2.57
2018-07-31T09:34:00.823Z,2.70
2018-07-31T09:36:29.435Z,2.40
2018-07-31T09:38:57.992Z,2.70
2018-07-31T09:41:26.712Z,2.80
2018-07-31T09:43:55.234Z,2.77
2018-07-31T09:46:24.442Z,2.37
2018-07-31T09:48:53.139Z,2.80
2018-07-31T09:51:21.666Z,2.40
2018-07-31T09:53:50.213Z,2.33
2018-07-31T09:56:18.792Z,2.73
2018-07-31T09:58:47.332Z,2.50
2018-07-31T10:01:18.504Z,2.40
2018-07-31T10:03:47.302Z,2.30
2018-07-31T10:06:15.955Z,2.67
2018-07-31T10:08:44.494Z,2.17
2018-07-31T10:11:13.024Z,2.13
2018-07-31T10:13:41.704Z,2.30
2018-07-31T10:16:10.308Z,2.30
2018-07-31T10:18:39.338Z,2.30
2018-07-31T10:21:08.306Z,2.37
2018-07-31T10:23:36.858Z,2.53
2018-07-31T10:26:06.272Z,2.17
2018-07-31T10:28:35.343Z,2.53
2018-07-31T10:31:04.643Z,2.40
2018-07-31T10:33:33.595Z,2.40
2018-07-31T10:36:02.270Z,2.40
2018-07-31T10:38:30.827Z,2.37
2018-07-31T10:40:59.587Z,2.80
2018-07-31T10:43:28.145Z,2.77
2018-07-31T10:45:58.111Z,2.60
2018-07-31T10:48:27.398Z,3.23
2018-07-31T10:50:56.909Z,2.67
2018-07-31T10:53:26.452Z,2.90
2018-07-31T10:55:55.912Z,2.60
2018-07-31T10:58:25.108Z,2.73
2018-07-31T11:00:54.355Z,2.97
2018-07-31T11:03:23.742Z,2.80
2018-07-31T11:05:52.984Z,2.73
2018-07-31T11:08:23.178Z,3.13
2018-07-31T11:10:52.443Z,2.43
2018-07-31T11:13:21.665Z,2.60
2018-07-31T11:15:50.904Z,2.77
2018-07-31T11:18:20.077Z,2.80
2018-07-31T11:20:49.112Z,3.17
2018-07-31T11:23:18.831Z,2.93
2018-07-31T11:25:48.128Z,2.53
2018-07-31T11:28:17.363Z,3.00
2018-07-31T11:30:45.925Z,2.87
2018-07-31T11:33:14.472Z,2.70
2018-07-31T11:35:43.685Z,2.77
2018-07-31T11:38:12.834Z,2.80
2018-07-31T11:40:42.148Z,2.83
2018-07-31T11:43:11.353Z,2.43
2018-07-31T11:45:40.575Z,2.67
2018-07-31T11:48:09.109Z,2.97
2018-07-31T11:50:38.260Z,2.43
2018-07-31T11:53:07.535Z,3.03
2018-07-31T11:55:37.101Z,2.70
2018-07-31T11:58:06.780Z,3.07
2018-07-31T12:00:35.962Z,3.03
2018-07-31T12:03:05.175Z,2.80
2018-07-31T12:05:34.444Z,2.90
2018-07-31T12:08:03.795Z,2.90
2018-07-31T12:10:33.039Z,3.33
2018-07-31T12:13:02.291Z,2.80
2018-07-31T12:15:31.485Z,3.30
2018-07-31T12:18:00.728Z,2.83
2018-07-31T12:20:29.727Z,3.03
2018-07-31T12:22:58.952Z,3.13
2018-07-31T12:25:27.718Z,3.40
2018-07-31T12:27:56.914Z,3.10
2018-07-31T12:30:26.360Z,3.10
2018-07-31T12:32:55.732Z,3.53
2018-07-31T12:35:24.652Z,3.23
2018-07-31T12:37:53.921Z,3.47
2018-07-31T12:40:22.932Z,3.03
2018-07-31T12:42:52.162Z,3.57
2018-07-31T12:45:21.395Z,2.70
2018-07-31T12:47:50.609Z,3.30
2018-07-31T12:50:19.626Z,3.33
2018-07-31T12:52:48.675Z,3.97
2018-07-31T12:55:17.684Z,3.97
2018-07-31T12:57:46.928Z,3.97
2018-07-31T13:00:16.209Z,4.07
2018-07-31T13:02:45.155Z,3.67
2018-07-31T13:05:14.232Z,3.47
2018-07-31T13:07:43.231Z,3.60
2018-07-31T13:10:12.445Z,4.00
2018-07-31T13:12:41.692Z,3.80
2018-07-31T13:15:10.923Z,4.13
2018-07-31T13:17:39.928Z,4.17
2018-07-31T13:20:08.979Z,4.20
2018-07-31T13:22:38.194Z,3.63
2018-07-31T13:25:07.437Z,3.83
2018-07-31T13:27:36.655Z,3.67
2018-07-31T13:30:06.519Z,4.27
2018-07-31T13:32:36.107Z,3.90
2018-07-31T13:35:05.114Z,3.30
2018-07-31T13:37:34.336Z,4.40
2018-07-31T13:40:03.584Z,4.13
2018-07-31T13:42:32.576Z,3.63
2018-07-31T13:45:02.021Z,4.07
2018-07-31T13:47:31.256Z,3.70
2018-07-31T13:50:00.509Z,3.80
2018-07-31T13:52:29.701Z,3.47
2018-07-31T13:54:58.716Z,3.80
2018-07-31T13:57:27.738Z,4.07
2018-07-31T13:59:56.992Z,3.73
2018-07-31T14:02:26.229Z,3.60
2018-07-31T14:04:55.483Z,4.53
2018-07-31T14:07:24.439Z,3.83
2018-07-31T14:09:53.685Z,3.42
2018-07-31T14:12:22.920Z,3.50
2018-07-31T14:14:52.135Z,3.67
2018-07-31T14:17:20.748Z,4.50
2018-07-31T14:19:49.972Z,3.87
2018-07-31T14:22:19.244Z,3.30
2018-07-31T14:24:48.454Z,3.42
2018-07-31T14:27:16.997Z,3.40
2018-07-31T14:29:46.133Z,4.55
2018-07-31T14:32:15.345Z,3.35
2018-07-31T14:34:44.340Z,3.90
2018-07-31T14:37:13.612Z,3.83
2018-07-31T14:39:42.824Z,4.08
2018-07-31T14:42:11.357Z,3.33
2018-07-31T14:44:40.691Z,3.60
2018-07-31T14:47:09.903Z,3.40
2018-07-31T14:49:39.111Z,3.37
2018-07-31T14:52:08.168Z,3.25
2018-07-31T14:54:37.192Z,3.37
2018-07-31T14:57:05.727Z,3.22
2018-07-31T14:59:34.865Z,3.58
2018-07-31T15:02:03.457Z,3.55
2018-07-31T15:04:31.995Z,3.47
2018-07-31T15:07:00.515Z,3.00
2018-07-31T15:09:29.858Z,3.55
2018-07-31T15:11:59.215Z,3.02
2018-07-31T15:14:28.523Z,3.08
2018-07-31T15:16:57.050Z,3.40
2018-07-31T15:19:25.564Z,3.60
2018-07-31T15:21:54.120Z,3.60
2018-07-31T15:24:22.694Z,2.72
2018-07-31T15:26:51.227Z,3.33
2018-07-31T15:29:19.753Z,3.35
2018-07-31T15:31:48.259Z,3.40
2018-07-31T15:34:16.799Z,3.67
2018-07-31T15:36:45.329Z,3.62
2018-07-31T15:39:14.361Z,3.65
2018-07-31T15:41:43.256Z,3.30
2018-07-31T15:44:11.792Z,3.27
2018-07-31T15:46:40.652Z,3.30
2018-07-31T15:49:09.171Z,3.60
2018-07-31T15:51:37.687Z,3.95
2018-07-31T15:54:06.376Z,3.33
2018-07-31T15:56:34.878Z,3.37
2018-07-31T15:59:04.089Z,3.33
2018-07-31T16:01:33.096Z,3.15
2018-07-31T16:04:02.116Z,2.98
2018-07-31T16:06:30.903Z,2.85
2018-07-31T16:08:59.832Z,3.17
2018-07-31T16:11:28.528Z,3.52
2018-07-31T16:13:57.492Z,3.17
2018-07-31T16:16:26.704Z,3.17
2018-07-31T16:18:55.943Z,3.67
2018-07-31T16:21:24.964Z,3.17
2018-07-31T16:23:53.984Z,3.70
2018-07-31T16:26:23.021Z,3.10
2018-07-31T16:28:52.132Z,3.10
2018-07-31T16:31:21.481Z,3.12
2018-07-31T16:33:50.818Z,3.52
2018-07-31T16:36:20.129Z,3.90
2018-07-31T16:38:49.338Z,4.00
2018-07-31T16:41:18.596Z,3.35
2018-07-31T16:43:47.803Z,3.27
2018-07-31T16:46:17.110Z,3.47
2018-07-31T16:48:46.452Z,3.27
2018-07-31T16:51:15.689Z,3.47
2018-07-31T16:53:44.669Z,3.55
2018-07-31T16:56:13.918Z,3.87
2018-07-31T16:58:43.149Z,3.72
2018-07-31T17:01:12.375Z,3.10
2018-07-31T17:03:41.395Z,3.40
2018-07-31T17:06:10.917Z,3.73
2018-07-31T17:08:40.049Z,3.50
2018-07-31T17:11:09.276Z,3.70
2018-07-31T17:13:38.525Z,3.60
2018-07-31T17:16:07.723Z,3.67
2018-07-31T17:18:37.305Z,3.67
2018-07-31T17:21:06.575Z,4.33
2018-07-31T17:23:35.786Z,3.90
2018-07-31T17:26:05.485Z,4.13
2018-07-31T17:28:34.644Z,3.67
2018-07-31T17:31:03.695Z,3.77
2018-07-31T17:33:32.894Z,3.57
2018-07-31T17:36:02.228Z,3.40
2018-07-31T17:38:31.335Z,3.77
2018-07-31T17:41:00.585Z,3.60
2018-07-31T17:43:29.802Z,3.70
2018-07-31T17:45:59.019Z,3.63
2018-07-31T17:48:28.299Z,3.63
2018-07-31T17:50:57.865Z,3.57
2018-07-31T17:53:26.872Z,3.23
2018-07-31T17:55:56.131Z,3.90
2018-07-31T17:58:25.373Z,3.40
2018-07-31T18:00:54.579Z,3.57
2018-07-31T18:03:23.617Z,3.80
2018-07-31T18:05:52.611Z,3.70
2018-07-31T18:08:21.687Z,3.93
2018-07-31T18:10:50.893Z,4.17
2018-07-31T18:13:19.928Z,3.80
2018-07-31T18:15:49.153Z,3.67
2018-07-31T18:18:18.137Z,3.10
2018-07-31T18:20:47.572Z,3.57
2018-07-31T18:23:16.871Z,4.13
2018-07-31T18:25:46.062Z,3.50
2018-07-31T18:28:15.065Z,3.90
2018-07-31T18:30:44.092Z,3.70
2018-07-31T18:33:13.106Z,3.47
2018-07-31T18:35:42.138Z,4.10
2018-07-31T18:38:11.403Z,3.70
2018-07-31T18:40:40.684Z,4.07
2018-07-31T18:43:09.500Z,3.47
2018-07-31T18:45:38.197Z,4.23
2018-07-31T18:48:07.280Z,4.33
2018-07-31T18:50:36.420Z,4.17
2018-07-31T18:53:05.767Z,4.30
2018-07-31T18:55:35.191Z,4.30
2018-07-31T18:58:04.423Z,4.43
2018-07-31T19:00:33.637Z,4.43
2018-07-31T19:03:02.217Z,4.17
2018-07-31T19:05:31.521Z,4.70
2018-07-31T19:08:00.051Z,4.37
2018-07-31T19:10:29.123Z,4.80
2018-07-31T19:12:58.556Z,4.20
2018-07-31T19:15:27.627Z,4.47
2018-07-31T19:17:56.840Z,4.10
2018-07-31T19:20:28.626Z,4.50
2018-07-31T19:22:58.473Z,4.33
2018-07-31T19:25:27.684Z,3.60
2018-07-31T19:27:57.207Z,3.80
2018-07-31T19:30:26.523Z,3.90
2018-07-31T19:32:55.747Z,3.97
2018-07-31T19:35:24.952Z,4.23
2018-07-31T19:37:54.352Z,4.27
2018-07-31T19:40:24.249Z,4.63
2018-07-31T19:42:53.415Z,4.50
2018-07-31T19:45:22.740Z,4.30
2018-07-31T19:47:53.648Z,4.10
2018-07-31T19:50:23.168Z,4.47
2018-07-31T19:52:52.289Z,4.27
2018-07-31T19:55:21.536Z,4.20
2018-07-31T19:57:50.522Z,3.80
2018-07-31T20:00:19.604Z,3.40
2018-07-31T20:02:48.828Z,4.07
2018-07-31T20:05:17.851Z,4.30
2018-07-31T20:07:47.057Z,4.00
2018-07-31T20:10:16.279Z,4.47
2018-07-31T20:12:45.297Z,3.80
2018-07-31T20:15:14.578Z,4.20
2018-07-31T20:17:43.759Z,3.50
2018-07-31T20:20:12.983Z,3.67
2018-07-31T20:22:42.013Z,4.40
2018-07-31T20:25:11.192Z,4.30
2018-07-31T20:27:40.472Z,3.83
2018-07-31T20:30:09.741Z,3.60
2018-07-31T20:32:38.752Z,4.07
2018-07-31T20:35:07.976Z,4.27
2018-07-31T20:37:36.947Z,4.00
2018-07-31T20:40:06.479Z,4.00
2018-07-31T20:42:35.628Z,3.90
2018-07-31T20:45:04.748Z,3.60
2018-07-31T20:47:33.884Z,3.63
2018-07-31T20:50:03.124Z,3.80
2018-07-31T20:52:32.790Z,3.90
2018-07-31T20:55:01.967Z,3.70
2018-07-31T20:57:31.196Z,4.30
2018-07-31T21:00:00.168Z,3.53
2018-07-31T21:02:29.220Z,3.50
2018-07-31T21:04:58.526Z,3.30
2018-07-31T21:07:27.698Z,3.53
2018-07-31T21:09:56.927Z,3.33
2018-07-31T21:12:26.147Z,3.57
2018-07-31T21:14:55.145Z,3.73
2018-07-31T21:17:24.398Z,3.50
2018-07-31T21:19:53.622Z,3.50
2018-07-31T21:22:22.847Z,3.60
2018-07-31T21:24:51.846Z,3.77
2018-07-31T21:27:21.102Z,3.80
2018-07-31T21:29:50.327Z,3.77
2018-07-31T21:32:19.566Z,3.87
2018-07-31T21:34:49.056Z,4.10
2018-07-31T21:37:18.532Z,4.03
2018-07-31T21:39:47.832Z,3.97
2018-07-31T21:42:16.831Z,3.60
2018-07-31T21:44:45.848Z,4.47
2018-07-31T21:47:14.864Z,3.83
2018-07-31T21:49:43.380Z,4.50
2018-07-31T21:52:12.336Z,4.30
2018-07-31T21:54:41.576Z,3.50
2018-07-31T21:57:10.860Z,3.47
2018-07-31T21:59:40.132Z,3.50
2018-07-31T22:02:09.099Z,3.20
2018-07-31T22:04:38.087Z,2.77
2018-07-31T22:07:07.336Z,3.07
2018-07-31T22:09:42.632Z,2.53
2018-07-31T22:12:11.963Z,2.67
2018-07-31T22:14:41.417Z,3.10
2018-07-31T22:17:10.835Z,3.20
2018-07-31T22:19:40.459Z,2.50
2018-07-31T22:22:09.572Z,2.93
2018-07-31T22:24:38.882Z,2.30
2018-07-31T22:27:07.950Z,2.27
2018-07-31T22:29:37.247Z,2.10
2018-07-31T22:32:06.484Z,2.10
2018-07-31T22:34:35.705Z,2.10
2018-07-31T22:37:04.964Z,2.40
2018-07-31T22:39:34.157Z,2.30
2018-07-31T22:42:03.430Z,2.20
2018-07-31T22:44:32.640Z,2.17
2018-07-31T22:47:02.001Z,2.00
2018-07-31T22:49:31.251Z,2.30
2018-07-31T22:52:00.481Z,2.07
2018-07-31T22:54:29.728Z,2.10
2018-07-31T22:56:58.732Z,2.33
2018-07-31T22:59:27.977Z,2.27
2018-07-31T23:01:57.217Z,2.10
2018-07-31T23:04:26.442Z,2.10
2018-07-31T23:06:55.658Z,2.03
2018-07-31T23:09:24.870Z,2.23
2018-07-31T23:11:54.091Z,2.30
2018-07-31T23:14:23.132Z,1.83
2018-07-31T23:16:52.319Z,2.00
2018-07-31T23:19:21.382Z,1.80
2018-07-31T23:21:50.616Z,1.97
2018-07-31T23:24:19.823Z,1.90
2018-07-31T23:26:49.221Z,2.00
2018-07-31T23:29:18.470Z,1.80
2018-07-31T23:31:47.721Z,1.73
2018-07-31T23:34:16.692Z,1.87
2018-07-31T23:36:45.956Z,1.80
2018-07-31T23:39:15.171Z,1.80
2018-07-31T23:41:44.435Z,1.67
2018-07-31T23:44:13.397Z,2.00
2018-07-31T23:46:43.949Z,1.80
2018-07-31T23:49:13.291Z,1.83
2018-07-31T23:51:42.506Z,1.83
2018-07-31T23:54:11.715Z,2.00
2018-07-31T23:56:40.969Z,1.77
2018-07-31T23:59:10.171Z,1.60
